createdAt,value
2019-04-23T00:00:05.201Z,95250.86
2019-04-23T00:02:20.487Z,95245.29
2019-04-23T00:04:48.127Z,95237.09
2019-04-23T00:07:39.637Z,95253.59
2019-04-23T00:09:57.526Z,95253.33
2019-04-23T00:12:40.490Z,95251.56
2019-04-23T00:15:04.846Z,95264.66
2019-04-23T00:20:06.759Z,95261.92
2019-04-23T00:22:39.812Z,95267.91
2019-04-23T00:27:59.461Z,95280.63
2019-04-23T00:30:38.205Z,95277.17
2019-04-23T00:32:56.015Z,95293.68
2019-04-23T00:35:34.127Z,95292.69
2019-04-23T00:38:06.596Z,95309.66
2019-04-23T00:40:35.722Z,95289.14
2019-04-23T00:43:03.365Z,95304.47
2019-04-23T00:45:41.233Z,95299.34
2019-04-23T00:48:14.882Z,95314.97
2019-04-23T00:50:44.743Z,95322.96
2019-04-23T00:53:12.610Z,95319.47
2019-04-23T01:00:47.375Z,95336.55
2019-04-23T01:03:17.475Z,95340.09
2019-04-23T01:05:47.006Z,95350.77
2019-04-23T01:11:04.665Z,95358.67
2019-04-23T01:13:40.068Z,95370.32
2019-04-23T01:16:05.759Z,95366.32
2019-04-23T01:18:47.812Z,95372.95
2019-04-23T01:20:58.520Z,95383.36
2019-04-23T01:23:42.304Z,95384.05
2019-04-23T01:26:30.402Z,95382.87
2019-04-23T01:29:06.749Z,95398.19
2019-04-23T01:31:39.893Z,95391.63
2019-04-23T01:34:18.376Z,95380.86
2019-04-23T01:36:36.435Z,95388.81
2019-04-23T01:39:13.021Z,95387.11
2019-04-23T01:41:45.400Z,95397.56
2019-04-23T01:44:14.360Z,95397.96
2019-04-23T01:46:49.154Z,95403.16
2019-04-23T01:49:25.074Z,95403.42
2019-04-23T01:54:18.891Z,95400.00
2019-04-23T01:56:49.418Z,95401.98
2019-04-23T01:59:26.327Z,95412.81
2019-04-23T02:07:01.167Z,95394.09
2019-04-23T02:09:48.242Z,95387.13
2019-04-23T02:11:57.949Z,95390.84
2019-04-23T02:14:34.925Z,95393.09
2019-04-23T02:17:01.207Z,95397.64
2019-04-23T02:19:42.449Z,95393.55
2019-04-23T02:22:19.283Z,95391.58
2019-04-23T02:24:48.116Z,95398.32
2019-04-23T02:27:22.407Z,95402.44
2019-04-23T02:32:31.802Z,95396.89
2019-04-23T02:35:01.701Z,95386.98
2019-04-23T02:37:36.332Z,95389.69
2019-04-23T02:40:17.585Z,95386.27
2019-04-23T02:47:32.595Z,95392.34
2019-04-23T02:50:24.809Z,95385.55
2019-04-23T02:52:37.261Z,95395.50
2019-04-23T02:55:11.157Z,95390.32
2019-04-23T02:57:35.550Z,95401.22
2019-04-23T03:02:49.877Z,95397.86
2019-04-23T03:10:16.235Z,95407.67
2019-04-23T03:12:54.269Z,95411.33
2019-04-23T03:20:59.508Z,95412.03
2019-04-23T03:26:23.073Z,95426.09
2019-04-23T03:41:21.764Z,95439.25
2019-04-23T03:43:46.793Z,95440.63
2019-04-23T03:48:47.880Z,95441.36
2019-04-23T03:51:17.213Z,95438.37
2019-04-23T03:56:41.587Z,95446.68
2019-04-23T03:58:47.444Z,95456.03
2019-04-23T04:01:34.745Z,95453.18
2019-04-23T04:06:37.693Z,95451.48
2019-04-23T04:09:09.773Z,95464.21
2019-04-23T04:11:24.411Z,95464.69
2019-04-23T04:14:14.314Z,95465.70
2019-04-23T04:16:34.204Z,95462.19
2019-04-23T04:19:06.529Z,95471.42
2019-04-23T04:21:33.814Z,95468.05
2019-04-23T04:24:13.190Z,95476.00
2019-04-23T04:26:46.806Z,95480.78
2019-04-23T04:31:52.246Z,95477.25
2019-04-23T04:34:21.443Z,95481.91
2019-04-23T04:39:10.080Z,95484.27
2019-04-23T04:44:37.684Z,95485.78
2019-04-23T04:46:49.947Z,95477.31
2019-04-23T04:49:23.804Z,95494.74
2019-04-23T04:54:21.591Z,95502.76
2019-04-23T04:56:58.065Z,95503.66
2019-04-23T04:59:27.246Z,95496.70
2019-04-23T05:02:01.624Z,95499.67
2019-04-23T05:04:33.132Z,95504.69
2019-04-23T05:12:17.197Z,95510.73
2019-04-23T05:14:33.722Z,95496.26
2019-04-23T05:17:04.033Z,95516.25
2019-04-23T05:24:35.319Z,95491.97
2019-04-23T05:27:16.161Z,95497.16
2019-04-23T05:29:46.604Z,95493.55
2019-04-23T05:32:21.918Z,95506.66
2019-04-23T05:34:50.321Z,95505.70
2019-04-23T05:37:29.419Z,95506.66
2019-04-23T05:40:00.411Z,95508.91
2019-04-23T05:42:26.085Z,95511.84
2019-04-23T05:45:00.936Z,95515.41
2019-04-23T05:50:00.818Z,95525.27
2019-04-23T05:52:43.823Z,95516.39
2019-04-23T05:57:40.547Z,95514.86
2019-04-23T06:00:19.449Z,95516.77
2019-04-23T06:02:53.734Z,95516.73
2019-04-23T06:05:38.777Z,95534.90
2019-04-23T06:10:27.288Z,95520.37
2019-04-23T06:12:57.748Z,95527.71
2019-04-23T06:15:26.805Z,95534.17
2019-04-23T06:20:57.607Z,95537.23
2019-04-23T06:23:26.957Z,95549.25
2019-04-23T06:26:22.418Z,95544.43
2019-04-23T06:31:18.103Z,95524.59
2019-04-23T06:33:52.357Z,95531.47
2019-04-23T06:39:10.295Z,95526.98
2019-04-23T06:41:44.514Z,95530.32
2019-04-23T06:44:19.599Z,95544.77
2019-04-23T06:46:52.174Z,95547.53
2019-04-23T06:49:30.654Z,95551.36
2019-04-23T06:54:42.452Z,95566.23
2019-04-23T07:01:53.218Z,95561.72
2019-04-23T07:03:14.722Z,95545.81
2019-04-23T07:16:16.164Z,95567.26
2019-04-23T07:18:46.466Z,95575.34
2019-04-23T07:21:22.143Z,95575.01
2019-04-23T07:24:26.348Z,95579.18
2019-04-23T07:26:40.811Z,95591.99
2019-04-23T07:29:15.944Z,95580.28
2019-04-23T07:34:46.942Z,95566.72
2019-04-23T07:38:28.700Z,95582.39
2019-04-23T07:55:03.024Z,95549.76
2019-04-23T07:58:01.986Z,95532.98
2019-04-23T08:00:36.663Z,95540.25
2019-04-23T08:03:14.317Z,95545.03
2019-04-23T08:05:36.224Z,95542.72
2019-04-23T08:08:11.635Z,95557.06
2019-04-23T08:11:33.088Z,95564.86
2019-04-23T08:16:58.149Z,95569.80
2019-04-23T08:19:56.414Z,95569.98
2019-04-23T08:31:09.954Z,95564.31
2019-04-23T08:33:54.929Z,95572.17
2019-04-23T08:36:29.448Z,95563.97
2019-04-23T08:39:12.506Z,95567.25
2019-04-23T08:45:13.286Z,95566.07
2019-04-23T08:47:52.506Z,95577.86
2019-04-23T08:50:18.843Z,95580.74
2019-04-23T08:53:17.923Z,95579.94
2019-04-23T08:55:44.195Z,95592.70
2019-04-23T08:58:17.096Z,95594.47
2019-04-23T09:00:52.649Z,95581.34
2019-04-23T09:03:28.463Z,95587.44
2019-04-23T09:08:39.305Z,95581.29
2019-04-23T09:14:22.861Z,95575.00
2019-04-23T09:16:57.786Z,95571.86
2019-04-23T09:19:35.244Z,95558.81
2019-04-23T09:28:48.825Z,95573.33
2019-04-23T09:31:18.801Z,95572.84
2019-04-23T09:34:09.766Z,95555.98
2019-04-23T09:37:00.289Z,95562.64
2019-04-23T09:39:46.944Z,95562.59
2019-04-23T09:42:33.544Z,95558.51
2019-04-23T09:45:13.015Z,95581.84
2019-04-23T09:47:53.732Z,95575.48
2019-04-23T09:53:33.937Z,95567.28
2019-04-23T09:56:06.791Z,95564.50
2019-04-23T09:58:39.552Z,95567.90
2019-04-23T10:03:52.176Z,95558.30
2019-04-23T10:06:18.256Z,95563.22
2019-04-23T10:08:47.419Z,95566.98
2019-04-23T10:11:15.930Z,95556.20
2019-04-23T10:13:48.176Z,95553.80
2019-04-23T10:16:21.368Z,95565.25
2019-04-23T10:18:50.898Z,95547.29
2019-04-23T10:21:45.069Z,95535.97
2019-04-23T10:23:59.351Z,95521.55
2019-04-23T10:26:32.254Z,95512.53
2019-04-23T10:29:16.002Z,95518.36
2019-04-23T10:31:46.079Z,95527.87
2019-04-23T10:34:17.058Z,95523.92
2019-04-23T10:36:47.423Z,95515.56
2019-04-23T10:39:22.065Z,95506.47
2019-04-23T10:41:52.668Z,95509.73
2019-04-23T10:44:25.693Z,95507.17
2019-04-23T10:50:31.670Z,95495.69
2019-04-23T10:53:05.029Z,95485.70
2019-04-23T10:58:36.811Z,95497.58
2019-04-23T11:01:16.363Z,95495.09
2019-04-23T11:04:02.203Z,95480.64
2019-04-23T11:06:23.490Z,95488.47
2019-04-23T11:08:55.913Z,95488.59
2019-04-23T11:11:24.151Z,95504.52
2019-04-23T11:14:09.697Z,95486.81
2019-04-23T11:28:22.699Z,95489.95
2019-04-23T11:30:45.320Z,95485.66
2019-04-23T11:36:19.093Z,95486.47
2019-04-23T11:38:48.623Z,95475.05
2019-04-23T11:40:59.999Z,95464.11
2019-04-23T11:46:34.084Z,95473.28
2019-04-23T11:48:52.309Z,95461.27
2019-04-23T11:51:43.711Z,95460.41
2019-04-23T11:56:12.074Z,95448.95
2019-04-23T11:58:42.945Z,95441.67
2019-04-23T12:04:14.048Z,95434.73
2019-04-23T12:06:59.706Z,95440.69
2019-04-23T12:12:23.921Z,95457.68
2019-04-23T12:17:33.028Z,95472.98
2019-04-23T12:20:06.283Z,95469.42
2019-04-23T12:23:08.871Z,95463.25
2019-04-23T12:25:32.475Z,95443.16
2019-04-23T12:27:46.981Z,95436.92
2019-04-23T12:33:32.186Z,95444.48
2019-04-23T12:35:35.198Z,95424.43
2019-04-23T12:38:17.187Z,95420.16
2019-04-23T12:40:38.457Z,95425.72
2019-04-23T12:43:14.506Z,95415.76
2019-04-23T12:45:47.023Z,95430.98
2019-04-23T12:51:08.940Z,95443.03
2019-04-23T12:53:37.936Z,95438.86
2019-04-23T12:56:08.799Z,95449.76
2019-04-23T12:58:44.993Z,95435.02
2019-04-23T13:01:16.355Z,95437.94
2019-04-23T13:03:55.701Z,95439.84
2019-04-23T13:06:28.343Z,95414.14
2019-04-23T13:09:21.964Z,95403.19
2019-04-23T13:11:51.734Z,95407.45
2019-04-23T13:14:30.463Z,95411.86
2019-04-23T13:17:02.073Z,95412.13
2019-04-23T13:19:44.871Z,95407.80
2019-04-23T13:24:33.074Z,95414.91
2019-04-23T13:27:02.473Z,95417.99
2019-04-23T13:29:56.822Z,95412.09
2019-04-23T13:32:29.266Z,95403.84
2019-04-23T13:35:15.419Z,95410.99
2019-04-23T13:37:40.447Z,95414.47
2019-04-23T13:40:00.212Z,95405.55
2019-04-23T13:45:53.031Z,95381.91
2019-04-23T13:48:06.116Z,95389.14
2019-04-23T13:50:42.058Z,95381.07
2019-04-23T13:55:42.863Z,95378.49
2019-04-23T13:58:32.597Z,95369.80
2019-04-23T14:01:10.859Z,95384.89
2019-04-23T14:03:40.796Z,95355.52
2019-04-23T14:06:16.542Z,95358.58
2019-04-23T14:11:23.301Z,95355.23
2019-04-23T14:16:34.015Z,95342.51
2019-04-23T14:18:56.229Z,95354.97
2019-04-23T14:21:30.961Z,95355.27
2019-04-23T14:28:53.395Z,95341.95
2019-04-23T14:31:23.388Z,95355.34
2019-04-23T14:39:22.244Z,95345.58
2019-04-23T14:41:27.173Z,95355.18
2019-04-23T14:44:08.164Z,95335.17
2019-04-23T14:49:26.147Z,95354.27
2019-04-23T14:51:47.825Z,95347.72
2019-04-23T14:54:15.623Z,95369.49
2019-04-23T14:56:44.850Z,95352.53
2019-04-23T14:59:24.204Z,95361.66
2019-04-23T15:01:49.018Z,95360.95
2019-04-23T15:04:24.180Z,95359.84
2019-04-23T15:09:30.328Z,95318.44
2019-04-23T15:12:02.143Z,95302.14
2019-04-23T15:17:03.656Z,95297.47
2019-04-23T15:19:47.866Z,95322.20
2019-04-23T15:22:13.493Z,95324.08
2019-04-23T15:24:38.919Z,95311.66
2019-04-23T15:29:31.902Z,95343.05
2019-04-23T15:34:37.680Z,95346.40
2019-04-23T15:39:47.569Z,95355.70
2019-04-23T15:42:16.681Z,95377.52
2019-04-23T15:44:49.035Z,95389.89
2019-04-23T15:47:28.383Z,95392.16
2019-04-23T15:49:59.096Z,95388.94
2019-04-23T15:52:29.856Z,95396.62
2019-04-23T15:55:03.688Z,95408.34
2019-04-23T15:57:45.121Z,95409.44
2019-04-23T16:00:02.221Z,95407.74
2019-04-23T16:02:02.353Z,95418.64
2019-04-23T16:04:33.634Z,95429.92
2019-04-23T16:07:04.575Z,95439.40
2019-04-23T16:10:12.648Z,95436.59
2019-04-23T16:12:31.299Z,95429.31
2019-04-23T16:17:27.840Z,95411.47
2019-04-23T16:20:32.025Z,95417.07
2019-04-23T16:22:52.721Z,95426.11
2019-04-23T16:25:21.707Z,95429.31
2019-04-23T16:28:04.233Z,95427.04
2019-04-23T16:30:50.048Z,95425.66
2019-04-23T16:33:10.184Z,95410.89
2019-04-23T16:35:51.285Z,95418.41
2019-04-23T16:38:26.711Z,95426.02
2019-04-23T16:40:41.493Z,95416.14
2019-04-23T16:45:51.320Z,95420.39
2019-04-23T16:48:33.208Z,95408.39
2019-04-23T16:51:11.099Z,95409.56
2019-04-23T16:56:04.274Z,95423.16
2019-04-23T16:58:54.588Z,95423.91
2019-04-23T17:01:08.383Z,95422.10
2019-04-23T17:03:39.880Z,95423.88
2019-04-23T17:09:21.908Z,95428.81
2019-04-23T17:11:41.785Z,95425.43
2019-04-23T17:14:20.230Z,95424.38
2019-04-23T17:16:42.638Z,95424.00
2019-04-23T17:21:57.177Z,95433.03
2019-04-23T17:26:57.372Z,95437.05
2019-04-23T17:29:41.855Z,95436.84
2019-04-23T17:31:45.164Z,95436.66
2019-04-23T17:34:30.758Z,95433.42
2019-04-23T17:37:07.314Z,95432.85
2019-04-23T17:39:31.206Z,95419.02
2019-04-23T17:47:20.471Z,95417.05
2019-04-23T17:50:00.153Z,95412.16
2019-04-23T17:52:22.335Z,95417.14
2019-04-23T17:54:56.671Z,95433.14
2019-04-23T17:57:26.295Z,95424.69
2019-04-23T18:00:12.669Z,95432.41
2019-04-23T18:02:51.819Z,95427.50
2019-04-23T18:05:02.451Z,95426.95
2019-04-23T18:10:17.875Z,95425.48
2019-04-23T18:15:05.037Z,95404.02
2019-04-23T18:17:43.284Z,95424.38
2019-04-23T18:20:22.963Z,95429.21
2019-04-23T18:23:00.433Z,95421.48
2019-04-23T18:25:40.721Z,95423.33
2019-04-23T18:28:00.214Z,95424.86
2019-04-23T18:31:00.047Z,95424.38
2019-04-23T18:34:00.614Z,95429.52
2019-04-23T18:35:56.705Z,95420.34
2019-04-23T18:43:43.938Z,95435.64
2019-04-23T18:46:15.017Z,95416.27
2019-04-23T18:51:07.793Z,95428.96
2019-04-23T18:56:19.295Z,95413.42
2019-04-23T18:58:54.536Z,95411.90
2019-04-23T19:01:25.188Z,95415.27
2019-04-23T19:09:10.418Z,95408.25
2019-04-23T19:11:59.360Z,95412.11
2019-04-23T19:14:27.216Z,95429.89
2019-04-23T19:19:25.465Z,95435.84
2019-04-23T19:24:28.744Z,95446.30
2019-04-23T19:29:41.639Z,95432.55
2019-04-23T19:31:56.901Z,95438.61
2019-04-23T19:34:38.012Z,95426.30
2019-04-23T19:39:36.797Z,95428.37
2019-04-23T19:47:09.558Z,95400.56
2019-04-23T19:52:10.883Z,95417.23
2019-04-23T19:54:54.177Z,95406.47
2019-04-23T19:57:19.456Z,95419.55
2019-04-23T20:04:46.165Z,95425.09
2019-04-23T20:12:25.130Z,95436.32
2019-04-23T20:15:00.072Z,95448.80
2019-04-23T20:19:55.019Z,95453.78
2019-04-23T20:22:33.904Z,95465.52
2019-04-23T20:27:33.747Z,95453.44
2019-04-23T20:30:33.245Z,95462.20
2019-04-23T20:35:34.828Z,95473.83
2019-04-23T20:43:06.952Z,95472.69
2019-04-23T20:45:46.936Z,95477.20
2019-04-23T20:48:18.475Z,95483.84
2019-04-23T20:50:47.093Z,95485.30
2019-04-23T20:53:13.596Z,95500.16
2019-04-23T20:56:01.900Z,95482.77
2019-04-23T20:58:20.951Z,95507.61
2019-04-23T21:00:59.268Z,95500.09
2019-04-23T21:03:41.494Z,95522.73
2019-04-23T21:06:01.892Z,95513.08
2019-04-23T21:08:52.166Z,95520.20
2019-04-23T21:10:55.481Z,95519.09
2019-04-23T21:13:50.714Z,95516.34
2019-04-23T21:16:04.976Z,95523.62
2019-04-23T21:18:47.970Z,95526.47
2019-04-23T21:21:13.577Z,95522.68
2019-04-23T21:23:48.081Z,95524.20
2019-04-23T21:26:01.998Z,95516.27
2019-04-23T21:28:57.159Z,95503.03
2019-04-23T21:31:22.832Z,95497.16
2019-04-23T21:33:56.906Z,95505.80
2019-04-23T21:36:43.429Z,95514.27
2019-04-23T21:39:18.873Z,95507.91
2019-04-23T21:44:28.915Z,95517.48
2019-04-23T21:47:07.807Z,95525.98
2019-04-23T21:49:40.769Z,95524.12
2019-04-23T21:52:05.169Z,95531.77
2019-04-23T21:54:32.243Z,95529.63
2019-04-23T21:57:05.463Z,95532.52
2019-04-23T21:59:36.327Z,95535.61
2019-04-23T22:02:03.502Z,95526.25
2019-04-23T22:04:41.430Z,95533.87
2019-04-23T22:07:07.120Z,95530.16
2019-04-23T22:09:43.717Z,95522.95
2019-04-23T22:14:47.003Z,95512.98
2019-04-23T22:17:15.072Z,95527.13
2019-04-23T22:19:56.995Z,95533.96
2019-04-23T22:22:16.293Z,95533.41
2019-04-23T22:24:48.613Z,95523.67
2019-04-23T22:27:16.764Z,95521.52
2019-04-23T22:29:54.074Z,95521.70
2019-04-23T22:32:30.816Z,95523.31
2019-04-23T22:35:00.402Z,95529.91
2019-04-23T22:37:24.165Z,95525.19
2019-04-23T22:45:05.604Z,95523.58
2019-04-23T22:47:34.665Z,95522.62
2019-04-23T22:55:14.876Z,95492.93
2019-04-23T22:58:05.110Z,95493.41
2019-04-23T23:00:14.527Z,95514.01
2019-04-23T23:03:09.786Z,95504.45
2019-04-23T23:05:50.836Z,95510.97
2019-04-23T23:08:10.823Z,95516.39
2019-04-23T23:10:38.184Z,95516.25
2019-04-23T23:15:44.978Z,95503.35
2019-04-23T23:18:14.353Z,95500.88
2019-04-23T23:20:46.363Z,95503.37
2019-04-23T23:23:19.482Z,95501.35
2019-04-23T23:25:49.275Z,95502.36
2019-04-23T23:28:20.626Z,95506.51
2019-04-23T23:30:56.396Z,95506.51
2019-04-23T23:33:18.792Z,95502.55
2019-04-23T23:35:53.560Z,95501.10
2019-04-23T23:38:28.876Z,95501.97
2019-04-23T23:41:05.323Z,95480.06
2019-04-23T23:43:24.326Z,95486.92
2019-04-23T23:46:07.942Z,95485.17
2019-04-23T23:48:32.398Z,95482.64
2019-04-23T23:51:12.025Z,95482.83
2019-04-23T23:53:40.067Z,95484.36
2019-04-23T23:56:11.259Z,95468.36
2019-04-23T23:58:43.381Z,95473.37
